Dexter, Maine
Current Conditions -  °F | °C
As of 9:53 AM on Saturday 25 Oct 2014 (Local Time) from KBGR Reporting Station
Few Clouds Few Clouds  
Wind Chill: 51°   Ceiling: Unl
Heat Index: 51°   Visibility: 10mi
Dew Point: 39°   Wind: 9mph
Humidity: 63%   Direction: 300°WNW
Pressure: 29.65"   Gusts: NA
Location:  45.02°N, 69.28°W
Report Text: KBGR 251353Z 30008KT 10SM FEW060 FEW120 FEW250 11/04 A2965 RMK AO2 SLP041 T01060039
Loading
Personal Weather Stations






























Interactive Weather Map
Tropical Storm Tracking
New forecast layout! Learn more

10-Day Weather Forecast

Advertisements
Track Severe Weather on mobile